Time;durP1;ratioP1;P1;durP2;ratioP2;P2;SDS_P1;SDS_P2;PMS_P1;PMS_P2;Temp;Humidity;BMP_temperature;BMP_pressure;BME280_temperature;BME280_humidity;BME280_pressure;Samples;Min_cycle;Max_cycle;Signal;HPM_P1;HPM_P2
2021/10/16 00:02:07;;;;;;;2.20;0.20;;;26.90;44.00;;;;;;5044432;28;20155;-45
2021/10/16 00:04:34;;;;;;;1.73;0.20;;;26.90;43.90;;;;;;5044579;28;20050;-46
2021/10/16 00:07:01;;;;;;;1.05;0.20;;;26.90;44.00;;;;;;5044166;28;20056;-44
2021/10/16 00:09:28;;;;;;;1.80;0.32;;;26.90;43.90;;;;;;5045280;28;20049;-45
2021/10/16 00:11:55;;;;;;;5.50;1.05;;;26.90;43.90;;;;;;5051184;28;20076;-45
2021/10/16 00:14:23;;;;;;;0.80;0.28;;;26.90;44.10;;;;;;5046730;28;20285;-46
2021/10/16 00:16:50;;;;;;;0.50;0.20;;;26.90;44.00;;;;;;5045864;28;20162;-45
2021/10/16 00:19:18;;;;;;;0.98;0.30;;;26.90;43.90;;;;;;5043595;28;20099;-45
2021/10/16 00:21:45;;;;;;;1.05;0.45;;;26.90;43.90;;;;;;5044712;28;20033;-45
2021/10/16 00:24:13;;;;;;;0.85;0.25;;;26.90;44.00;;;;;;5046668;28;20125;-45
2021/10/16 00:26:40;;;;;;;0.20;0.20;;;26.90;44.00;;;;;;5045269;28;20043;-47
2021/10/16 00:29:07;;;;;;;0.30;0.20;;;26.90;44.10;;;;;;5045892;28;20056;-44
2021/10/16 00:31:34;;;;;;;0.80;0.20;;;26.90;44.10;;;;;;5029020;28;20044;-45
2021/10/16 00:34:01;;;;;;;0.40;0.20;;;26.90;44.10;;;;;;5045225;28;20068;-49
2021/10/16 00:36:29;;;;;;;0.30;0.20;;;26.90;44.20;;;;;;5043267;28;20048;-46
2021/10/16 00:38:56;;;;;;;0.95;0.32;;;26.90;44.10;;;;;;5048791;28;20045;-47
2021/10/16 00:41:24;;;;;;;0.40;0.10;;;26.90;44.10;;;;;;5043791;28;20076;-46
2021/10/16 00:44:12;;;;;;;0.70;0.25;;;26.90;44.20;;;;;;5044156;28;20559;-48
2021/10/16 00:46:40;;;;;;;0.45;0.10;;;26.90;44.10;;;;;;5044594;28;20057;-45
2021/10/16 00:49:07;;;;;;;1.00;0.10;;;26.90;44.20;;;;;;5044725;28;20067;-47
2021/10/16 00:51:36;;;;;;;0.68;0.30;;;26.80;44.20;;;;;;5044020;28;20122;-46
2021/10/16 00:54:07;;;;;;;1.13;0.25;;;26.90;44.30;;;;;;5030377;28;20059;-46
2021/10/16 00:56:35;;;;;;;0.35;0.20;;;26.80;44.20;;;;;;5045457;28;20041;-46
2021/10/16 00:59:04;;;;;;;0.20;0.10;;;26.80;44.20;;;;;;5044093;28;20532;-50
2021/10/16 01:01:31;;;;;;;0.32;0.20;;;26.80;44.20;;;;;;5026167;28;20038;-46
2021/10/16 01:03:59;;;;;;;0.38;0.20;;;26.80;44.10;;;;;;5028687;28;20045;-46
2021/10/16 01:06:29;;;;;;;0.25;0.13;;;26.80;44.00;;;;;;5045750;28;20061;-46
2021/10/16 01:08:58;;;;;;;1.00;0.40;;;26.90;44.20;;;;;;5043825;28;20037;-45
2021/10/16 01:11:34;;;;;;;0.20;0.13;;;26.80;44.20;;;;;;5042637;28;20116;-47
2021/10/16 01:14:05;;;;;;;0.68;0.20;;;26.80;44.20;;;;;;5042219;28;20069;-46
2021/10/16 01:16:32;;;;;;;0.90;0.45;;;26.80;44.20;;;;;;5027909;28;20041;-46
2021/10/16 01:19:01;;;;;;;0.68;0.30;;;26.80;44.30;;;;;;5043724;28;20107;-46
2021/10/16 01:21:31;;;;;;;0.55;0.20;;;26.80;44.40;;;;;;5043915;28;20095;-47
2021/10/16 01:24:00;;;;;;;2.60;0.30;;;26.90;44.50;;;;;;5046127;28;20120;-45
2021/10/16 01:26:29;;;;;;;1.40;0.75;;;26.80;44.50;;;;;;5039471;28;20049;-49
2021/10/16 01:28:57;;;;;;;0.20;0.20;;;26.80;44.50;;;;;;5044223;28;20036;-48
2021/10/16 01:31:26;;;;;;;0.57;0.17;;;26.80;44.60;;;;;;5044521;28;20111;-49
2021/10/16 01:33:53;;;;;;;1.08;0.40;;;26.80;44.70;;;;;;5042684;28;20120;-46
2021/10/16 01:36:21;;;;;;;2.58;0.50;;;26.80;44.70;;;;;;5042783;28;20052;-44
2021/10/16 01:38:50;;;;;;;1.25;0.20;;;26.80;44.80;;;;;;5045448;28;20040;-47
2021/10/16 01:41:17;;;;;;;0.40;0.30;;;26.80;44.90;;;;;;5043317;28;20037;-44
2021/10/16 01:43:45;;;;;;;1.55;0.22;;;26.80;44.90;;;;;;5026031;28;20069;-48
2021/10/16 01:46:12;;;;;;;0.52;0.20;;;26.80;44.90;;;;;;5026504;28;20122;-46
2021/10/16 01:48:39;;;;;;;0.77;0.30;;;26.80;44.90;;;;;;5045754;28;20049;-49
2021/10/16 01:51:08;;;;;;;4.05;0.50;;;26.90;45.00;;;;;;5044856;28;20129;-49
2021/10/16 01:53:39;;;;;;;1.13;0.32;;;26.80;45.00;;;;;;5043290;28;20053;-46
2021/10/16 01:56:08;;;;;;;0.70;0.40;;;26.80;45.00;;;;;;5029945;28;20043;-45
2021/10/16 01:58:42;;;;;;;1.73;0.20;;;26.80;45.10;;;;;;5025628;28;20037;-48
2021/10/16 02:01:13;;;;;;;1.55;0.57;;;26.80;45.20;;;;;;5027968;28;20119;-46
2021/10/16 02:03:43;;;;;;;1.08;0.20;;;26.80;45.30;;;;;;5031821;28;20045;-46
2021/10/16 02:06:19;;;;;;;1.95;0.30;;;26.90;45.30;;;;;;5033520;28;20118;-42
2021/10/16 02:08:52;;;;;;;1.45;1.20;;;26.90;45.30;;;;;;5044556;28;20037;-46
2021/10/16 02:11:20;;;;;;;2.85;0.40;;;26.90;45.30;;;;;;5034003;28;20068;-46
2021/10/16 02:13:54;;;;;;;3.00;0.50;;;26.90;45.20;;;;;;5029944;28;20033;-46
2021/10/16 02:16:21;;;;;;;2.95;0.30;;;26.90;45.10;;;;;;5026775;28;20308;-43
2021/10/16 02:19:01;;;;;;;2.72;0.20;;;26.90;45.20;;;;;;5037639;28;20044;-43
2021/10/16 02:21:30;;;;;;;1.88;0.45;;;26.70;45.50;;;;;;5044665;28;20045;-47
2021/10/16 02:23:59;;;;;;;3.00;0.40;;;26.40;45.70;;;;;;5029927;28;20045;-45
2021/10/16 02:26:32;;;;;;;2.10;0.30;;;26.10;46.10;;;;;;5051765;28;20501;-44
2021/10/16 02:29:00;;;;;;;3.38;1.08;;;25.80;46.50;;;;;;5050270;28;20037;-43
2021/10/16 02:31:31;;;;;;;1.15;0.25;;;25.60;46.90;;;;;;5050596;28;20387;-43
2021/10/16 02:33:59;;;;;;;1.27;0.20;;;25.30;47.10;;;;;;5034709;28;20546;-43
2021/10/16 02:36:33;;;;;;;0.50;0.35;;;25.10;47.50;;;;;;5032499;28;20052;-44
2021/10/16 02:39:00;;;;;;;4.45;1.17;;;24.90;48.40;;;;;;5052754;28;20041;-41
2021/10/16 02:41:36;;;;;;;0.40;0.40;;;24.80;48.10;;;;;;5048678;28;20041;-43
2021/10/16 02:44:04;;;;;;;1.10;0.30;;;24.60;48.40;;;;;;5051690;28;20107;-45
2021/10/16 02:46:37;;;;;;;0.65;0.20;;;24.50;48.60;;;;;;5047456;28;20041;-44
2021/10/16 02:49:04;;;;;;;1.95;0.20;;;24.40;48.90;;;;;;5032384;28;20045;-43
2021/10/16 02:51:31;;;;;;;1.13;0.30;;;24.20;49.00;;;;;;5053657;28;20080;-43
2021/10/16 02:53:59;;;;;;;3.40;0.77;;;24.10;49.20;;;;;;5053255;28;20084;-44
2021/10/16 02:56:26;;;;;;;3.55;0.40;;;24.00;49.30;;;;;;5051117;28;20129;-44
2021/10/16 02:58:54;;;;;;;2.92;0.40;;;23.90;49.50;;;;;;5030645;28;20132;-42
2021/10/16 03:01:21;;;;;;;1.00;0.28;;;23.80;50.30;;;;;;5048604;28;20041;-43
2021/10/16 03:03:49;;;;;;;2.85;0.88;;;23.70;49.80;;;;;;5032155;28;20452;-44
2021/10/16 03:06:17;;;;;;;0.22;0.20;;;23.60;50.00;;;;;;5053118;28;20039;-45
2021/10/16 03:08:44;;;;;;;0.32;0.30;;;23.50;50.10;;;;;;5035670;28;20049;-44
2021/10/16 03:11:16;;;;;;;0.50;0.30;;;23.50;50.30;;;;;;5049559;28;20051;-43
2021/10/16 03:13:45;;;;;;;0.10;0.10;;;23.40;50.40;;;;;;5030624;28;20039;-44
2021/10/16 03:16:19;;;;;;;0.88;0.20;;;23.30;50.60;;;;;;5032109;28;20048;-43
2021/10/16 03:18:48;;;;;;;0.82;0.50;;;23.20;50.70;;;;;;5030215;28;20145;-43
2021/10/16 03:21:15;;;;;;;1.58;0.20;;;23.20;50.80;;;;;;5050266;28;20045;-45
2021/10/16 03:23:43;;;;;;;2.10;0.20;;;23.10;50.90;;;;;;5052759;28;20619;-43
2021/10/16 03:26:10;;;;;;;0.65;0.17;;;23.00;51.10;;;;;;5034790;28;20106;-45
2021/10/16 03:28:37;;;;;;;1.17;0.20;;;23.00;51.20;;;;;;5046767;28;20098;-43
2021/10/16 03:31:04;;;;;;;0.40;0.20;;;22.90;51.40;;;;;;5031172;28;20540;-43
2021/10/16 03:33:32;;;;;;;0.40;0.40;;;22.90;51.50;;;;;;5052588;28;20056;-44
2021/10/16 03:36:00;;;;;;;2.13;0.50;;;22.80;52.20;;;;;;5048787;28;20045;-44
2021/10/16 03:38:27;;;;;;;0.30;0.30;;;22.80;51.80;;;;;;5050202;28;20548;-45
2021/10/16 03:40:54;;;;;;;0.45;0.20;;;22.70;51.90;;;;;;5047798;28;20123;-47
2021/10/16 03:43:21;;;;;;;1.20;0.20;;;22.70;52.00;;;;;;5032516;28;20055;-44
2021/10/16 03:45:48;;;;;;;0.20;0.20;;;22.70;52.10;;;;;;5046922;28;20037;-45
2021/10/16 03:48:17;;;;;;;0.73;0.25;;;22.60;52.20;;;;;;5051934;28;20045;-44
2021/10/16 03:50:46;;;;;;;1.05;0.25;;;22.60;52.20;;;;;;5047237;28;20044;-46
2021/10/16 03:53:13;;;;;;;1.27;0.20;;;22.50;52.20;;;;;;5048078;28;20052;-44
2021/10/16 03:55:41;;;;;;;0.20;0.20;;;22.50;52.30;;;;;;5048781;28;20037;-43
2021/10/16 03:58:08;;;;;;;1.20;0.30;;;22.40;52.30;;;;;;5031049;28;20063;-46
2021/10/16 04:00:36;;;;;;;0.95;0.30;;;22.40;52.40;;;;;;5030788;28;20047;-44
2021/10/16 04:03:05;;;;;;;1.05;0.10;;;22.40;52.70;;;;;;5049331;28;20049;-45
2021/10/16 04:05:34;;;;;;;1.27;0.30;;;22.40;52.60;;;;;;5054602;28;20573;-44
2021/10/16 04:08:05;;;;;;;1.08;0.28;;;22.30;53.20;;;;;;5050214;28;20048;-45
2021/10/16 04:10:33;;;;;;;0.80;0.20;;;22.30;52.70;;;;;;5046153;28;20037;-46
2021/10/16 04:13:00;;;;;;;2.45;0.28;;;22.30;52.80;;;;;;5030458;28;20048;-44
2021/10/16 04:15:28;;;;;;;0.50;0.20;;;22.20;52.90;;;;;;5036388;28;20033;-44
2021/10/16 04:17:56;;;;;;;0.32;0.20;;;22.20;53.00;;;;;;5051970;28;20143;-45
2021/10/16 04:20:23;;;;;;;0.73;0.25;;;22.20;53.00;;;;;;5050117;28;20045;-44
2021/10/16 04:22:53;;;;;;;1.85;0.47;;;22.20;53.10;;;;;;5047075;28;20063;-46
2021/10/16 04:25:22;;;;;;;0.20;0.20;;;22.10;53.00;;;;;;5047249;28;20516;-44
2021/10/16 04:27:49;;;;;;;1.92;0.22;;;22.10;53.10;;;;;;5045831;28;20060;-45
2021/10/16 04:30:31;;;;;;;0.30;0.10;;;22.10;53.10;;;;;;5048062;28;20116;-44
2021/10/16 04:32:59;;;;;;;0.40;0.13;;;22.00;53.10;;;;;;5053525;28;20120;-44
2021/10/16 04:35:26;;;;;;;0.30;0.30;;;22.00;53.20;;;;;;5050171;28;20223;-45
2021/10/16 04:37:53;;;;;;;0.55;0.20;;;22.00;53.30;;;;;;5046932;28;20045;-43
2021/10/16 04:40:22;;;;;;;0.20;0.20;;;22.00;53.30;;;;;;5047131;28;20083;-43
2021/10/16 04:42:50;;;;;;;0.98;0.30;;;21.90;53.30;;;;;;5045479;28;20507;-44
2021/10/16 04:45:18;;;;;;;0.25;0.25;;;21.90;53.30;;;;;;5048830;28;20045;-43
2021/10/16 04:47:46;;;;;;;0.20;0.10;;;21.90;53.40;;;;;;5036924;28;20038;-44
2021/10/16 04:50:13;;;;;;;0.20;0.20;;;21.90;53.40;;;;;;5049931;28;20122;-44
2021/10/16 04:52:45;;;;;;;1.48;0.32;;;21.90;53.40;;;;;;5040244;28;20041;-48
2021/10/16 04:55:21;;;;;;;0.45;0.20;;;21.80;53.50;;;;;;5029568;28;20048;-45
2021/10/16 04:57:49;;;;;;;3.83;0.20;;;21.80;53.70;;;;;;5023653;28;20052;-44
2021/10/16 05:00:18;;;;;;;0.35;0.28;;;21.80;53.60;;;;;;5033293;28;20120;-44
2021/10/16 05:02:45;;;;;;;1.48;0.20;;;21.80;53.70;;;;;;5046987;28;20041;-45
2021/10/16 05:05:12;;;;;;;0.98;0.32;;;21.80;53.80;;;;;;5050514;28;20044;-44
2021/10/16 05:07:41;;;;;;;0.20;0.20;;;21.80;53.80;;;;;;5032712;28;20087;-42
2021/10/16 05:10:09;;;;;;;0.30;0.20;;;21.80;53.80;;;;;;5045114;28;20536;-44
2021/10/16 05:12:36;;;;;;;0.88;0.70;;;21.70;53.80;;;;;;5048217;28;20399;-44
2021/10/16 05:15:05;;;;;;;0.20;0.20;;;21.70;53.80;;;;;;5052566;28;20525;-44
2021/10/16 05:17:35;;;;;;;0.80;0.68;;;21.70;53.90;;;;;;5032473;28;20041;-44
2021/10/16 05:20:08;;;;;;;1.70;0.20;;;21.70;53.90;;;;;;5047350;28;20124;-44
2021/10/16 05:22:42;;;;;;;0.50;0.40;;;21.70;54.00;;;;;;5044698;28;20053;-45
2021/10/16 05:25:10;;;;;;;0.73;0.10;;;21.70;54.00;;;;;;5044678;28;20033;-44
2021/10/16 05:27:38;;;;;;;0.22;0.20;;;21.70;54.00;;;;;;5046259;28;20628;-44
2021/10/16 05:30:08;;;;;;;1.75;0.20;;;21.70;54.10;;;;;;5034181;28;20049;-46
2021/10/16 05:32:37;;;;;;;0.88;0.20;;;21.70;54.10;;;;;;5032315;28;20037;-49
2021/10/16 05:35:08;;;;;;;0.98;0.20;;;21.60;54.00;;;;;;5030293;28;20056;-44
2021/10/16 05:37:35;;;;;;;0.88;0.20;;;21.70;54.00;;;;;;5045795;28;20041;-46
2021/10/16 05:40:03;;;;;;;0.75;0.35;;;21.60;53.90;;;;;;5030588;28;20055;-44
2021/10/16 05:42:30;;;;;;;0.47;0.47;;;21.60;53.90;;;;;;5029968;28;20041;-45
2021/10/16 05:45:01;;;;;;;4.38;0.15;;;21.60;53.90;;;;;;5032306;28;20041;-45
2021/10/16 05:47:29;;;;;;;1.10;0.20;;;21.60;53.90;;;;;;5053229;28;20095;-45
2021/10/16 05:49:56;;;;;;;1.38;0.20;;;21.60;54.00;;;;;;5048518;28;20110;-43
2021/10/16 05:52:23;;;;;;;2.55;0.20;;;21.60;53.90;;;;;;5045418;28;20048;-43
2021/10/16 05:54:50;;;;;;;0.73;0.55;;;21.60;54.10;;;;;;5029174;28;20052;-43
2021/10/16 05:57:18;;;;;;;2.78;0.43;;;21.60;54.10;;;;;;5038703;28;20045;-42
2021/10/16 05:59:45;;;;;;;1.13;0.17;;;21.60;54.10;;;;;;5048446;28;20749;-42
2021/10/16 06:02:12;;;;;;;2.53;0.63;;;21.60;54.10;;;;;;5044451;28;20091;-43
2021/10/16 06:04:40;;;;;;;0.68;0.20;;;21.60;54.10;;;;;;5044518;28;20037;-42
2021/10/16 06:07:08;;;;;;;2.75;0.15;;;21.60;54.10;;;;;;5027169;28;20124;-45
2021/10/16 06:09:39;;;;;;;0.40;0.20;;;21.60;54.00;;;;;;5027481;28;20041;-43
2021/10/16 06:12:06;;;;;;;0.90;0.40;;;21.50;53.90;;;;;;5046495;28;20118;-45
2021/10/16 06:14:33;;;;;;;5.38;0.30;;;21.60;54.00;;;;;;5044263;28;20108;-43
2021/10/16 06:17:12;;;;;;;3.47;0.30;;;21.60;54.00;;;;;;5026755;28;20136;-43
2021/10/16 06:19:41;;;;;;;1.83;0.65;;;21.50;54.00;;;;;;5042590;28;20048;-44
2021/10/16 06:22:08;;;;;;;1.92;0.30;;;21.50;53.90;;;;;;5041462;28;20127;-45
2021/10/16 06:24:35;;;;;;;0.65;0.65;;;21.50;53.90;;;;;;5024263;28;20104;-43
2021/10/16 06:27:02;;;;;;;1.85;0.20;;;21.50;53.90;;;;;;5046450;28;20043;-43
2021/10/16 06:29:29;;;;;;;0.52;0.20;;;21.50;53.90;;;;;;5045258;28;20103;-44
2021/10/16 06:31:58;;;;;;;3.40;0.52;;;21.50;53.80;;;;;;5028280;28;20049;-43
2021/10/16 06:34:25;;;;;;;0.95;0.10;;;21.50;53.80;;;;;;5023975;28;20455;-45
2021/10/16 06:36:54;;;;;;;0.50;0.10;;;21.50;53.80;;;;;;5026171;28;20536;-44
2021/10/16 06:39:21;;;;;;;2.22;0.10;;;21.50;53.70;;;;;;5044057;28;20048;-45
2021/10/16 06:41:56;;;;;;;1.55;0.30;;;21.50;53.70;;;;;;5046108;28;20531;-42
2021/10/16 06:44:42;;;;;;;0.55;0.10;;;21.50;53.70;;;;;;5045299;28;20045;-43
2021/10/16 06:47:25;;;;;;;0.63;0.10;;;21.50;53.90;;;;;;5026760;28;20049;-44
2021/10/16 06:49:52;;;;;;;0.75;0.40;;;21.50;53.60;;;;;;5028702;28;20033;-43
2021/10/16 06:52:20;;;;;;;1.70;0.10;;;21.50;53.60;;;;;;5026835;28;20033;-43
2021/10/16 06:54:47;;;;;;;1.10;0.50;;;21.50;53.50;;;;;;5024740;28;20115;-43
2021/10/16 06:57:15;;;;;;;0.35;0.35;;;21.50;53.50;;;;;;5044664;28;20049;-43
2021/10/16 06:59:43;;;;;;;2.55;0.20;;;21.50;53.50;;;;;;5029357;28;20053;-43
2021/10/16 07:02:12;;;;;;;0.63;0.20;;;21.50;53.40;;;;;;5028320;28;20079;-43
2021/10/16 07:04:49;;;;;;;1.00;0.40;;;21.50;53.40;;;;;;5026585;28;20052;-45
2021/10/16 07:07:16;;;;;;;2.17;0.38;;;21.50;53.40;;;;;;5026415;28;20444;-45
2021/10/16 07:09:50;;;;;;;1.63;0.20;;;21.50;53.30;;;;;;5026154;28;20097;-43
2021/10/16 07:12:18;;;;;;;0.73;0.40;;;21.50;53.30;;;;;;5048842;28;20131;-45
2021/10/16 07:14:45;;;;;;;2.25;0.10;;;21.50;53.30;;;;;;5032516;28;20051;-45
2021/10/16 07:17:12;;;;;;;0.85;0.20;;;21.50;53.20;;;;;;5049669;28;20379;-43
2021/10/16 07:19:40;;;;;;;0.20;0.10;;;21.50;53.20;;;;;;5050059;28;20585;-43
2021/10/16 07:22:07;;;;;;;2.38;0.20;;;21.50;53.20;;;;;;5048707;28;20398;-43
2021/10/16 07:24:34;;;;;;;0.47;0.30;;;21.60;53.20;;;;;;5048454;28;20033;-47
2021/10/16 07:27:03;;;;;;;0.47;0.20;;;21.50;53.20;;;;;;5049246;28;20047;-43
2021/10/16 07:29:30;;;;;;;1.35;0.20;;;21.60;53.20;;;;;;5047045;28;20112;-46
2021/10/16 07:31:57;;;;;;;1.10;0.10;;;21.60;53.20;;;;;;5047218;28;20044;-44
2021/10/16 07:34:24;;;;;;;0.73;0.20;;;21.60;53.30;;;;;;5047461;28;20052;-43
2021/10/16 07:36:51;;;;;;;0.95;0.15;;;21.60;53.30;;;;;;5047790;28;20421;-45
2021/10/16 07:39:18;;;;;;;0.65;0.30;;;21.60;53.30;;;;;;5045601;28;20037;-46
2021/10/16 07:41:47;;;;;;;1.23;0.85;;;21.70;53.30;;;;;;5047659;28;20045;-44
2021/10/16 07:44:16;;;;;;;1.20;0.20;;;21.70;53.20;;;;;;5045814;28;20048;-44
2021/10/16 07:46:45;;;;;;;6.60;0.20;;;21.70;53.20;;;;;;5045925;28;20051;-65
2021/10/16 07:49:12;;;;;;;5.68;1.88;;;21.70;52.80;;;;;;5046383;28;20044;-63
2021/10/16 07:51:40;;;;;;;4.32;2.15;;;21.70;49.80;;;;;;5047750;28;20409;-51
2021/10/16 07:54:07;;;;;;;3.97;1.33;;;21.80;47.90;;;;;;5050115;28;20040;-56
2021/10/16 07:56:34;;;;;;;4.72;1.17;;;21.80;46.80;;;;;;5047203;28;20525;-51
2021/10/16 07:59:01;;;;;;;6.93;2.53;;;21.90;46.20;;;;;;5046816;28;20478;-67
2021/10/16 08:01:29;;;;;;;4.55;1.38;;;21.90;45.80;;;;;;5046976;28;20051;-64
2021/10/16 08:03:57;;;;;;;3.60;1.80;;;22.00;45.30;;;;;;5047339;28;20037;-72
2021/10/16 08:06:24;;;;;;;1.65;0.65;;;22.00;45.00;;;;;;5029831;28;20106;-74
2021/10/16 08:08:51;;;;;;;3.80;0.75;;;22.10;44.20;;;;;;5050836;28;20409;-70
2021/10/16 08:11:38;;;;;;;1.05;1.05;;;22.20;43.80;;;;;;5047283;28;20048;-69
2021/10/16 08:14:06;;;;;;;3.97;1.05;;;22.20;43.40;;;;;;5046278;28;20417;-66
2021/10/16 08:16:34;;;;;;;4.35;1.70;;;22.30;43.00;;;;;;5043353;28;20547;-66
2021/10/16 08:19:01;;;;;;;3.10;0.98;;;22.40;42.80;;;;;;5047719;28;20524;-68
2021/10/16 08:21:28;;;;;;;2.08;0.70;;;22.40;42.50;;;;;;5047649;28;20441;-66
2021/10/16 08:23:55;;;;;;;1.88;0.80;;;22.50;42.20;;;;;;5047400;28;20124;-67
2021/10/16 08:26:22;;;;;;;1.08;1.00;;;22.50;42.00;;;;;;5046973;28;20049;-61
2021/10/16 08:28:49;;;;;;;2.72;1.38;;;22.50;41.90;;;;;;5046620;28;20037;-65
2021/10/16 08:31:17;;;;;;;1.33;1.02;;;22.60;41.70;;;;;;5047300;28;20110;-71
2021/10/16 08:33:46;;;;;;;0.93;0.70;;;22.70;41.50;;;;;;5045346;28;20991;-63
2021/10/16 08:36:13;;;;;;;3.35;0.40;;;22.70;41.10;;;;;;5046406;28;20041;-60
2021/10/16 08:38:40;;;;;;;1.50;0.63;;;22.80;40.80;;;;;;5047820;28;20045;-69
2021/10/16 08:41:10;;;;;;;4.57;0.90;;;22.80;40.50;;;;;;5047018;28;20067;-70
2021/10/16 08:43:38;;;;;;;0.95;0.70;;;22.80;40.20;;;;;;5046904;28;20091;-53
2021/10/16 08:46:05;;;;;;;4.13;1.27;;;22.80;40.00;;;;;;5047394;28;20048;-53
2021/10/16 08:48:32;;;;;;;4.18;1.38;;;22.80;40.00;;;;;;5047383;28;20059;-51
2021/10/16 08:51:02;;;;;;;5.03;1.80;;;22.90;40.10;;;;;;5048599;28;20455;-57
2021/10/16 08:53:29;;;;;;;4.75;1.00;;;22.90;40.00;;;;;;5035595;28;20135;-60
2021/10/16 08:55:56;;;;;;;3.15;0.80;;;23.00;40.00;;;;;;5032757;28;20051;-60
2021/10/16 08:58:24;;;;;;;6.82;0.85;;;23.00;40.00;;;;;;5046426;28;20079;-63
2021/10/16 09:00:53;;;;;;;2.03;0.70;;;23.00;39.90;;;;;;5045340;28;20045;-61
2021/10/16 09:03:23;;;;;;;9.27;0.60;;;23.00;39.80;;;;;;5047089;28;20831;-54
2021/10/16 09:06:06;;;;;;;4.50;1.77;;;23.00;40.10;;;;;;5047658;28;20065;-57
2021/10/16 09:08:36;;;;;;;2.75;0.75;;;23.00;40.70;;;;;;5046120;28;20508;-52
2021/10/16 09:11:23;;;;;;;1.10;0.43;;;22.80;41.10;;;;;;5046125;28;20037;-54
2021/10/16 09:13:53;;;;;;;4.05;0.35;;;22.80;41.50;;;;;;5044610;28;20153;-54
2021/10/16 09:16:21;;;;;;;1.38;0.30;;;22.70;41.90;;;;;;5042090;28;20087;-53
2021/10/16 09:19:00;;;;;;;4.13;0.57;;;22.60;42.20;;;;;;5046127;28;20096;-53
2021/10/16 09:21:30;;;;;;;1.48;0.30;;;22.60;42.50;;;;;;5047209;28;20045;-54
2021/10/16 09:24:13;;;;;;;3.55;0.60;;;22.50;42.80;;;;;;5032978;28;20569;-56
2021/10/16 09:26:43;;;;;;;12.57;0.95;;;22.50;43.10;;;;;;5046754;28;20139;-56
2021/10/16 09:29:11;;;;;;;6.95;1.48;;;22.40;43.40;;;;;;5043181;28;20073;-57
2021/10/16 09:31:40;;;;;;;1.95;0.30;;;22.40;43.70;;;;;;5040341;28;20044;-55
2021/10/16 09:34:08;;;;;;;7.22;0.43;;;22.40;43.80;;;;;;5039490;28;20048;-55
2021/10/16 09:36:37;;;;;;;3.20;0.20;;;22.40;43.90;;;;;;5046579;28;20131;-55
2021/10/16 09:39:06;;;;;;;6.45;0.40;;;22.40;44.00;;;;;;5047103;28;20576;-56
2021/10/16 09:41:36;;;;;;;6.10;0.30;;;22.40;44.10;;;;;;5046217;28;20044;-55
2021/10/16 09:44:05;;;;;;;2.95;0.30;;;22.40;44.20;;;;;;5050390;28;20143;-55
2021/10/16 09:46:32;;;;;;;3.55;0.10;;;22.40;44.30;;;;;;5046255;28;20045;-56
2021/10/16 09:49:09;;;;;;;4.50;0.73;;;22.40;44.40;;;;;;5028516;28;20049;-55
2021/10/16 09:51:53;;;;;;;2.47;0.20;;;22.40;44.40;;;;;;5046371;28;20132;-55
2021/10/16 09:54:20;;;;;;;3.70;0.68;;;22.40;44.50;;;;;;5046655;28;20047;-56
2021/10/16 09:56:48;;;;;;;2.70;0.20;;;22.30;44.50;;;;;;5046694;28;20048;-55
2021/10/16 09:59:18;;;;;;;2.80;0.50;;;22.40;44.70;;;;;;5045732;28;20045;-57
2021/10/16 10:01:46;;;;;;;1.95;0.30;;;22.40;44.70;;;;;;5045928;28;20090;-57
2021/10/16 10:04:17;;;;;;;1.20;0.38;;;22.40;44.70;;;;;;5046209;28;20037;-55
2021/10/16 10:06:46;;;;;;;1.50;0.55;;;22.30;44.70;;;;;;5046161;28;20118;-57
2021/10/16 10:09:15;;;;;;;2.30;0.20;;;22.40;44.80;;;;;;5046175;28;20045;-56
2021/10/16 10:11:47;;;;;;;1.60;0.20;;;22.40;45.40;;;;;;5046465;28;20040;-55
2021/10/16 10:14:17;;;;;;;2.70;0.20;;;22.40;44.90;;;;;;5046165;28;20041;-56
2021/10/16 10:16:45;;;;;;;2.58;0.45;;;22.40;45.50;;;;;;5045990;28;20146;-55
2021/10/16 10:19:13;;;;;;;4.28;0.40;;;22.40;44.90;;;;;;5029195;28;20044;-56
2021/10/16 10:21:42;;;;;;;3.33;0.30;;;22.40;45.50;;;;;;5045662;28;20406;-55
2021/10/16 10:24:10;;;;;;;1.95;0.55;;;22.40;45.50;;;;;;5047085;28;20045;-57
2021/10/16 10:26:40;;;;;;;2.20;0.35;;;22.50;44.90;;;;;;5045751;28;20045;-56
2021/10/16 10:29:08;;;;;;;1.63;0.20;;;22.50;44.90;;;;;;5045629;28;20468;-56
2021/10/16 10:31:55;;;;;;;1.52;0.40;;;22.50;44.90;;;;;;5046089;28;20040;-59
2021/10/16 10:34:28;;;;;;;0.20;0.13;;;22.60;44.80;;;;;;5045496;28;20033;-56
2021/10/16 10:36:58;;;;;;;2.15;0.30;;;22.50;44.80;;;;;;5045878;28;20043;-56
2021/10/16 10:39:57;;;;;;;0.85;0.20;;;22.60;44.90;;;;;;5045624;28;20044;-56
2021/10/16 10:42:54;;;;;;;0.77;0.20;;;22.60;44.80;;;;;;5043228;28;20052;-59
2021/10/16 10:45:42;;;;;;;1.58;0.10;;;22.70;44.80;;;;;;5046532;28;20044;-57
2021/10/16 10:48:17;;;;;;;0.10;0.10;;;22.60;44.80;;;;;;5050949;28;20064;-55
2021/10/16 10:50:50;;;;;;;2.15;0.20;;;22.70;44.80;;;;;;5053032;28;20036;-56
2021/10/16 10:53:44;;;;;;;0.73;0.20;;;22.70;44.80;;;;;;5049216;28;20131;-57
2021/10/16 10:56:23;;;;;;;0.50;0.10;;;22.80;44.80;;;;;;5046041;28;20056;-57
2021/10/16 10:59:03;;;;;;;1.33;0.70;;;22.80;44.80;;;;;;5049276;28;20047;-56
2021/10/16 11:01:59;;;;;;;0.65;0.10;;;22.80;44.70;;;;;;5029123;28;20041;-54
2021/10/16 11:04:55;;;;;;;4.18;0.30;;;22.90;44.70;;;;;;4949551;28;20046;-58
2021/10/16 11:07:39;;;;;;;1.17;0.20;;;22.90;44.70;;;;;;4945196;28;20524;-57
2021/10/16 11:10:07;;;;;;;1.60;0.10;;;22.90;44.60;;;;;;4953091;28;20098;-56
2021/10/16 11:12:36;;;;;;;0.95;0.30;;;22.90;44.60;;;;;;4949841;28;20829;-57
2021/10/16 11:15:06;;;;;;;0.20;0.10;;;23.00;44.60;;;;;;4952719;28;20055;-56
2021/10/16 11:17:36;;;;;;;0.30;0.10;;;23.00;44.50;;;;;;4956617;28;20126;-56
2021/10/16 11:20:05;;;;;;;1.38;0.43;;;23.10;44.50;;;;;;4952499;28;20513;-56
2021/10/16 11:22:56;;;;;;;0.38;0.10;;;23.10;44.50;;;;;;4949630;28;20493;-57
2021/10/16 11:25:24;;;;;;;0.20;0.10;;;23.20;44.50;;;;;;4934264;28;20145;-54
2021/10/16 11:28:09;;;;;;;0.20;0.20;;;23.10;44.50;;;;;;4953675;28;20047;-55
2021/10/16 11:30:39;;;;;;;2.45;0.13;;;23.20;44.50;;;;;;4948979;28;20071;-57
2021/10/16 11:33:09;;;;;;;0.10;0.10;;;23.20;44.50;;;;;;4954024;28;20071;-57
2021/10/16 11:35:36;;;;;;;0.15;0.10;;;23.20;44.40;;;;;;4954201;28;20193;-57
2021/10/16 11:38:04;;;;;;;2.65;0.10;;;23.30;44.50;;;;;;4952095;28;20050;-57
2021/10/16 11:40:33;;;;;;;0.10;0.10;;;23.30;45.00;;;;;;5010331;28;20691;-57
2021/10/16 11:43:02;;;;;;;2.65;0.10;;;23.30;44.40;;;;;;5048623;28;20120;-56
2021/10/16 11:45:31;;;;;;;1.75;0.32;;;23.40;44.40;;;;;;5048894;28;20048;-55
2021/10/16 11:48:01;;;;;;;2.92;0.90;;;23.40;44.40;;;;;;5048186;28;20429;-57
2021/10/16 11:50:30;;;;;;;0.50;0.20;;;23.40;44.40;;;;;;5048183;28;20155;-56
2021/10/16 11:53:16;;;;;;;0.75;0.35;;;23.40;44.50;;;;;;5047782;28;20045;-57
2021/10/16 11:55:44;;;;;;;1.70;0.10;;;23.50;44.40;;;;;;5029671;28;20420;-55
2021/10/16 11:58:15;;;;;;;4.53;0.55;;;23.50;44.40;;;;;;5048278;28;20920;-55
2021/10/16 12:00:44;;;;;;;1.55;0.65;;;23.50;44.40;;;;;;5048195;28;20041;-56
2021/10/16 12:03:14;;;;;;;2.28;0.22;;;23.50;44.40;;;;;;5049773;28;20056;-54
2021/10/16 12:05:42;;;;;;;3.22;0.20;;;23.60;44.40;;;;;;5047799;28;20049;-55
2021/10/16 12:08:14;;;;;;;0.65;0.63;;;23.60;44.30;;;;;;5046995;28;20049;-54
2021/10/16 12:10:50;;;;;;;0.40;0.15;;;23.60;44.40;;;;;;5048010;28;20048;-57
2021/10/16 12:13:29;;;;;;;3.55;0.95;;;23.70;44.30;;;;;;5047841;28;20037;-56
2021/10/16 12:15:57;;;;;;;0.88;0.20;;;23.70;44.30;;;;;;5045129;28;20029;-56
2021/10/16 12:18:26;;;;;;;1.88;0.50;;;23.70;44.30;;;;;;5048238;28;20048;-56
2021/10/16 12:20:57;;;;;;;0.50;0.30;;;23.70;44.30;;;;;;5048747;28;20555;-56
2021/10/16 12:23:40;;;;;;;1.60;0.20;;;23.80;44.30;;;;;;5047242;28;20037;-57
2021/10/16 12:26:18;;;;;;;2.78;0.57;;;23.80;44.30;;;;;;5047649;28;20136;-56
2021/10/16 12:28:45;;;;;;;1.10;0.20;;;23.80;44.20;;;;;;5042849;28;20033;-59
2021/10/16 12:31:13;;;;;;;3.30;0.43;;;23.80;44.20;;;;;;5047704;28;20033;-56
2021/10/16 12:34:02;;;;;;;0.68;0.28;;;23.80;44.20;;;;;;5047735;28;20053;-56
2021/10/16 12:36:30;;;;;;;0.80;0.13;;;23.90;44.20;;;;;;5045594;28;20114;-59
2021/10/16 12:38:58;;;;;;;0.60;0.20;;;23.90;44.20;;;;;;5046973;28;20041;-59
2021/10/16 12:41:28;;;;;;;0.85;0.20;;;23.90;44.10;;;;;;5047347;28;20048;-58
2021/10/16 12:43:55;;;;;;;0.47;0.10;;;23.90;44.10;;;;;;5047510;28;20033;-57
2021/10/16 12:46:29;;;;;;;1.13;0.10;;;23.90;44.10;;;;;;5047126;28;20041;-57
2021/10/16 12:48:58;;;;;;;0.30;0.17;;;24.00;44.00;;;;;;5047105;28;20061;-54
2021/10/16 12:51:39;;;;;;;0.30;0.20;;;24.00;44.10;;;;;;5047520;28;20045;-57
2021/10/16 12:54:06;;;;;;;0.80;0.22;;;24.00;43.90;;;;;;5047765;28;20072;-57
2021/10/16 12:57:05;;;;;;;1.80;0.28;;;24.00;44.00;;;;;;5047919;28;20546;-57
2021/10/16 12:59:32;;;;;;;1.38;0.10;;;24.00;43.90;;;;;;5046603;28;20600;-58
2021/10/16 13:01:59;;;;;;;0.10;0.10;;;24.10;44.00;;;;;;5046928;28;20033;-58
2021/10/16 13:04:28;;;;;;;1.30;0.10;;;24.10;44.00;;;;;;5046636;28;20048;-57